createdAt,value
2022-11-25T00:01:55.672Z,60.80
2022-11-25T00:04:24.214Z,59.30
2022-11-25T00:06:52.701Z,61.20
2022-11-25T00:09:21.215Z,62.40
2022-11-25T00:11:49.808Z,62.40
2022-11-25T00:14:18.352Z,61.10
2022-11-25T00:16:48.777Z,57.90
2022-11-25T00:19:17.967Z,60.10
2022-11-25T00:21:46.642Z,59.00
2022-11-25T00:24:17.373Z,58.80
2022-11-25T00:26:46.016Z,57.70
2022-11-25T00:29:14.653Z,60.10
2022-11-25T00:31:43.789Z,62.60
2022-11-25T00:34:14.744Z,57.90
2022-11-25T00:36:43.672Z,61.10
2022-11-25T00:39:16.062Z,58.30
2022-11-25T00:42:09.141Z,56.90
2022-11-25T00:44:39.702Z,59.30
2022-11-25T00:47:16.051Z,63.40
2022-11-25T00:49:48.014Z,58.70
2022-11-25T00:52:20.649Z,58.30
2022-11-25T00:54:50.553Z,57.80
2022-11-25T00:57:23.132Z,60.80
2022-11-25T00:59:51.919Z,57.40
2022-11-25T01:02:20.641Z,55.90
2022-11-25T01:04:49.698Z,59.20
2022-11-25T01:07:18.651Z,55.70
2022-11-25T01:09:49.398Z,57.10
2022-11-25T01:12:17.920Z,62.40
2022-11-25T01:14:46.553Z,58.10
2022-11-25T01:17:15.104Z,55.70
2022-11-25T01:19:43.690Z,55.90
2022-11-25T01:22:12.355Z,52.90
2022-11-25T01:24:40.891Z,56.10
2022-11-25T01:27:09.441Z,57.50
2022-11-25T01:29:38.032Z,57.40
2022-11-25T01:32:06.632Z,57.00
2022-11-25T01:34:35.808Z,54.20
2022-11-25T01:37:04.683Z,54.00
2022-11-25T01:39:33.552Z,53.70
2022-11-25T01:42:02.442Z,50.50
2022-11-25T01:44:33.229Z,48.50
2022-11-25T01:47:14.771Z,46.00
2022-11-25T01:49:54.114Z,46.70
2022-11-25T01:52:32.015Z,47.60
2022-11-25T01:55:13.151Z,46.10
2022-11-25T01:57:57.760Z,48.80
2022-11-25T02:00:26.302Z,45.10
2022-11-25T02:02:57.656Z,46.70
2022-11-25T02:05:39.373Z,48.00
2022-11-25T02:08:08.535Z,45.00
2022-11-25T02:10:37.478Z,47.40
2022-11-25T02:13:06.105Z,46.00
2022-11-25T02:15:35.433Z,50.10
2022-11-25T02:18:04.915Z,51.70
2022-11-25T02:20:33.693Z,48.90
2022-11-25T02:23:43.286Z,46.90
2022-11-25T02:26:12.000Z,47.10
2022-11-25T02:28:40.685Z,46.90
2022-11-25T02:31:09.381Z,45.00
2022-11-25T02:33:38.108Z,48.10
2022-11-25T02:36:14.397Z,44.60
2022-11-25T02:38:49.451Z,43.80
2022-11-25T02:41:18.922Z,43.30
2022-11-25T02:43:47.523Z,40.20
2022-11-25T02:46:22.493Z,42.60
2022-11-25T02:51:41.684Z,37.60
2022-11-25T02:54:12.415Z,41.30
2022-11-25T02:56:40.997Z,41.10
2022-11-25T02:59:10.618Z,41.80
2022-11-25T03:01:40.049Z,41.90
2022-11-25T03:04:08.682Z,41.90
2022-11-25T03:06:37.362Z,43.90
2022-11-25T03:09:05.957Z,42.40
2022-11-25T03:11:52.979Z,41.40
2022-11-25T03:14:21.526Z,40.30
2022-11-25T03:16:50.381Z,40.50
2022-11-25T03:19:19.026Z,38.40
2022-11-25T03:21:48.001Z,39.10
2022-11-25T03:24:16.594Z,38.10
2022-11-25T03:26:45.129Z,39.60
2022-11-25T03:29:13.738Z,40.30
2022-11-25T03:31:42.504Z,38.20
2022-11-25T03:34:11.179Z,36.00
2022-11-25T03:36:39.752Z,41.40
2022-11-25T03:39:08.430Z,40.00
2022-11-25T03:41:36.961Z,38.50
2022-11-25T03:44:05.698Z,42.40
2022-11-25T03:46:34.318Z,37.70
2022-11-25T03:49:03.578Z,41.30
2022-11-25T03:51:32.153Z,38.60
2022-11-25T03:54:00.714Z,39.60
2022-11-25T03:56:29.333Z,39.60
2022-11-25T03:58:57.910Z,38.60
2022-11-25T04:01:26.542Z,41.90
2022-11-25T04:03:55.191Z,38.40
2022-11-25T04:06:24.115Z,39.00
2022-11-25T04:08:52.811Z,39.80
2022-11-25T04:11:21.545Z,37.60
2022-11-25T04:13:50.079Z,40.50
2022-11-25T04:16:27.778Z,42.00
2022-11-25T04:18:56.335Z,40.80
2022-11-25T04:21:24.892Z,39.80
2022-11-25T04:23:53.416Z,42.10
2022-11-25T04:26:22.287Z,42.00
2022-11-25T04:28:52.983Z,44.10
2022-11-25T04:31:21.745Z,41.60
2022-11-25T04:33:52.703Z,43.60
2022-11-25T04:36:21.589Z,44.20
2022-11-25T04:38:50.274Z,39.00
2022-11-25T04:41:18.811Z,40.20
2022-11-25T04:43:47.348Z,40.50
2022-11-25T04:47:32.256Z,42.70
2022-11-25T04:50:00.879Z,39.20
2022-11-25T04:52:29.352Z,41.50
2022-11-25T04:54:57.907Z,42.80
2022-11-25T04:57:26.448Z,40.00
2022-11-25T04:59:54.999Z,41.00
2022-11-25T05:02:27.437Z,42.50
2022-11-25T05:04:57.895Z,42.50
2022-11-25T05:07:28.929Z,42.50
2022-11-25T05:09:57.770Z,42.20
2022-11-25T05:12:29.612Z,41.20
2022-11-25T05:14:58.453Z,40.00
2022-11-25T05:17:30.621Z,41.80
2022-11-25T05:19:59.245Z,40.40
2022-11-25T05:22:33.159Z,40.80
2022-11-25T05:25:02.107Z,43.20
2022-11-25T05:27:30.647Z,43.90
2022-11-25T05:29:59.262Z,40.50
2022-11-25T05:32:27.805Z,44.60
2022-11-25T05:34:56.320Z,40.10
2022-11-25T05:37:24.917Z,42.00
2022-11-25T05:39:53.445Z,43.90
2022-11-25T05:42:21.979Z,42.30
2022-11-25T05:44:50.586Z,42.50
2022-11-25T05:47:19.072Z,43.30
2022-11-25T05:49:47.804Z,42.20
2022-11-25T05:52:18.004Z,44.90
2022-11-25T05:54:46.561Z,46.90
2022-11-25T05:57:15.085Z,42.60
2022-11-25T05:59:43.746Z,46.60
2022-11-25T06:02:12.341Z,43.00
2022-11-25T06:04:40.941Z,45.00
2022-11-25T06:07:09.523Z,43.30
2022-11-25T06:09:38.334Z,44.70
2022-11-25T06:12:07.278Z,42.50
2022-11-25T06:14:36.269Z,45.00
2022-11-25T06:17:05.627Z,45.00
2022-11-25T06:19:34.337Z,43.40
2022-11-25T06:22:02.845Z,44.70
2022-11-25T06:24:31.450Z,43.10
2022-11-25T06:27:01.096Z,43.80
2022-11-25T06:29:29.763Z,43.90
2022-11-25T06:31:58.594Z,45.80
2022-11-25T06:34:27.267Z,45.40
2022-11-25T06:36:56.286Z,46.60
2022-11-25T06:39:25.584Z,45.90
2022-11-25T06:41:54.112Z,48.60
2022-11-25T06:44:22.704Z,47.40
2022-11-25T06:46:51.358Z,47.20
2022-11-25T06:49:19.982Z,45.00
2022-11-25T06:51:50.425Z,43.40
2022-11-25T06:54:18.962Z,43.80
2022-11-25T06:56:53.868Z,45.70
2022-11-25T06:59:22.558Z,44.70
2022-11-25T07:01:51.242Z,45.90
2022-11-25T07:04:19.857Z,44.30
2022-11-25T07:06:49.972Z,46.40
2022-11-25T07:09:19.712Z,44.00
2022-11-25T07:11:49.471Z,43.20
2022-11-25T07:14:18.146Z,47.00
2022-11-25T07:16:46.961Z,44.30
2022-11-25T07:19:18.177Z,45.50
2022-11-25T07:21:47.054Z,45.30
2022-11-25T07:24:18.413Z,47.00
2022-11-25T07:26:47.065Z,48.20
2022-11-25T07:29:51.595Z,46.30
2022-11-25T07:32:10.274Z,46.90
2022-11-25T07:34:39.512Z,45.70
2022-11-25T07:37:08.287Z,48.60
2022-11-25T07:39:37.256Z,49.70
2022-11-25T07:42:05.946Z,49.40
2022-11-25T07:44:34.625Z,50.50
2022-11-25T07:47:03.145Z,50.70
2022-11-25T07:49:31.884Z,50.60
2022-11-25T07:52:02.385Z,47.50
2022-11-25T07:54:31.428Z,46.50
2022-11-25T07:57:00.013Z,45.10
2022-11-25T07:59:28.630Z,45.50
2022-11-25T08:01:57.182Z,44.20
2022-11-25T08:04:25.912Z,45.50
2022-11-25T08:06:55.192Z,42.80
2022-11-25T08:09:24.285Z,41.90
2022-11-25T08:11:53.951Z,42.50
2022-11-25T08:14:22.500Z,42.60
2022-11-25T08:16:51.167Z,41.30
2022-11-25T08:19:19.813Z,37.90
2022-11-25T08:21:48.414Z,36.20
2022-11-25T08:24:20.832Z,36.20
2022-11-25T08:26:49.696Z,37.80
2022-11-25T08:29:19.567Z,35.10
2022-11-25T08:31:48.557Z,37.90
2022-11-25T08:34:23.011Z,39.00
2022-11-25T08:36:52.622Z,38.60
2022-11-25T08:39:51.084Z,38.90
2022-11-25T08:42:11.005Z,39.50
2022-11-25T08:44:39.758Z,35.30
2022-11-25T08:47:10.031Z,35.60
2022-11-25T08:49:41.705Z,35.10
2022-11-25T08:52:11.175Z,35.10
2022-11-25T08:54:39.741Z,34.30
2022-11-25T08:57:08.481Z,34.10
2022-11-25T08:59:37.716Z,32.80
2022-11-25T09:02:08.763Z,34.60
2022-11-25T09:04:39.512Z,34.70
2022-11-25T09:07:08.265Z,30.10
2022-11-25T09:09:37.145Z,33.90
2022-11-25T09:12:06.066Z,32.30
2022-11-25T09:14:34.694Z,30.60
2022-11-25T09:17:07.888Z,29.50
2022-11-25T09:19:36.790Z,30.20
2022-11-25T09:22:05.767Z,28.50
2022-11-25T09:24:35.854Z,29.00
2022-11-25T09:27:04.459Z,29.10
2022-11-25T09:29:33.239Z,29.50
2022-11-25T09:32:02.104Z,27.70
2022-11-25T09:34:30.787Z,27.30
2022-11-25T09:36:59.374Z,26.80
2022-11-25T09:39:29.992Z,27.90
2022-11-25T09:42:57.112Z,27.50
2022-11-25T09:46:39.434Z,25.80
2022-11-25T09:49:22.955Z,26.70
2022-11-25T09:52:14.045Z,30.20
2022-11-25T10:00:14.194Z,23.30
2022-11-25T10:03:30.015Z,22.40
2022-11-25T10:06:04.706Z,22.20
2022-11-25T10:08:43.689Z,23.90
2022-11-25T10:11:55.045Z,22.90
2022-11-25T10:14:47.498Z,21.30
2022-11-25T10:17:33.960Z,20.70
2022-11-25T10:20:13.354Z,20.90
2022-11-25T10:22:45.753Z,22.80
2022-11-25T10:25:31.782Z,21.40
2022-11-25T10:28:18.686Z,22.10
2022-11-25T10:31:06.465Z,22.40
2022-11-25T10:33:46.423Z,22.00
2022-11-25T10:36:21.916Z,22.80
2022-11-25T10:39:15.376Z,23.00
2022-11-25T10:41:57.705Z,23.10
2022-11-25T10:44:36.438Z,25.10
2022-11-25T10:47:26.787Z,22.70
2022-11-25T10:50:25.655Z,23.40
2022-11-25T10:53:13.344Z,20.70
2022-11-25T10:56:05.252Z,19.80
2022-11-25T10:58:37.412Z,21.50
2022-11-25T11:01:22.706Z,21.50
2022-11-25T11:04:15.327Z,19.60
2022-11-25T11:06:51.480Z,19.80
2022-11-25T11:09:43.275Z,22.50
2022-11-25T11:12:26.971Z,21.60
2022-11-25T11:15:30.239Z,20.90
2022-11-25T11:18:21.499Z,19.20
2022-11-25T11:20:56.131Z,22.60
2022-11-25T11:23:25.738Z,19.20
2022-11-25T11:26:04.799Z,17.20
2022-11-25T11:28:38.994Z,18.20
2022-11-25T11:31:26.917Z,15.60
2022-11-25T11:34:40.913Z,18.60
2022-11-25T11:37:36.165Z,16.90
2022-11-25T11:40:24.283Z,18.00
2022-11-25T11:43:34.038Z,15.70
2022-11-25T11:46:31.113Z,16.40
2022-11-25T11:49:05.632Z,16.00
2022-11-25T11:51:45.652Z,16.90
2022-11-25T11:54:22.732Z,16.70
2022-11-25T11:57:02.325Z,17.10
2022-11-25T11:59:52.834Z,16.90
2022-11-25T12:02:48.788Z,18.60
2022-11-25T12:05:23.271Z,17.40
2022-11-25T12:11:05.996Z,15.30
2022-11-25T12:14:07.359Z,16.90
2022-11-25T12:16:58.027Z,16.40
2022-11-25T12:20:07.637Z,15.20
2022-11-25T12:22:47.406Z,16.20
2022-11-25T12:25:28.653Z,13.80
2022-11-25T12:28:18.627Z,13.50
2022-11-25T12:31:15.813Z,13.60
2022-11-25T12:34:01.663Z,12.10
2022-11-25T12:36:41.466Z,9.70
2022-11-25T12:39:39.804Z,10.20
2022-11-25T12:42:23.200Z,10.70
2022-11-25T12:45:05.384Z,11.30
2022-11-25T12:47:34.067Z,12.80
2022-11-25T12:50:03.354Z,13.60
2022-11-25T12:53:16.381Z,14.70
2022-11-25T12:55:44.923Z,13.30
2022-11-25T12:58:58.877Z,14.00
2022-11-25T13:02:06.364Z,14.10
2022-11-25T13:05:00.460Z,14.40
2022-11-25T13:08:11.357Z,14.20
2022-11-25T13:11:15.887Z,14.10
2022-11-25T13:14:33.384Z,14.30
2022-11-25T13:17:03.027Z,14.50
2022-11-25T13:19:38.054Z,13.80
2022-11-25T13:22:23.769Z,11.90
2022-11-25T13:27:52.993Z,11.40
2022-11-25T13:30:33.573Z,10.10
2022-11-25T13:33:14.055Z,11.00
2022-11-25T13:35:53.187Z,10.10
2022-11-25T13:38:30.945Z,10.80
2022-11-25T13:41:21.255Z,8.80
2022-11-25T13:44:32.434Z,10.90
2022-11-25T13:47:39.630Z,9.70
2022-11-25T13:50:21.851Z,10.20
2022-11-25T13:53:03.923Z,10.00
2022-11-25T13:55:34.328Z,10.90
2022-11-25T13:58:31.740Z,10.30
2022-11-25T14:01:29.599Z,12.60
2022-11-25T14:04:01.160Z,12.50
2022-11-25T14:07:03.759Z,11.10
2022-11-25T14:10:10.975Z,11.60
2022-11-25T14:13:11.741Z,10.50
2022-11-25T14:16:07.550Z,10.30
2022-11-25T14:19:51.575Z,10.10
2022-11-25T14:23:18.197Z,11.70
2022-11-25T14:26:02.758Z,11.80
2022-11-25T14:29:00.131Z,11.30
2022-11-25T14:34:45.405Z,11.30
2022-11-25T14:37:35.081Z,11.20
2022-11-25T14:40:17.989Z,12.60
2022-11-25T14:42:52.562Z,13.30
2022-11-25T14:45:30.033Z,11.80
2022-11-25T14:47:58.702Z,12.30
2022-11-25T14:50:34.575Z,11.90
2022-11-25T14:53:09.958Z,13.20
2022-11-25T14:55:38.619Z,16.60
2022-11-25T14:58:07.177Z,18.20
2022-11-25T15:00:50.990Z,19.60
2022-11-25T15:03:20.467Z,23.90
2022-11-25T15:06:01.491Z,23.40
2022-11-25T15:08:41.566Z,25.60
2022-11-25T15:11:22.907Z,28.00
2022-11-25T15:14:03.866Z,26.20
2022-11-25T15:16:40.593Z,25.00
2022-11-25T15:19:20.138Z,23.70
2022-11-25T15:24:55.843Z,24.40
2022-11-25T15:27:28.194Z,25.10
2022-11-25T15:29:57.766Z,25.60
2022-11-25T15:32:30.193Z,23.90
2022-11-25T15:35:01.891Z,25.30
2022-11-25T15:37:30.568Z,28.00
2022-11-25T15:40:32.047Z,25.70
2022-11-25T15:43:05.820Z,27.00
2022-11-25T15:45:46.601Z,26.50
2022-11-25T15:48:31.589Z,34.10
2022-11-25T15:51:06.264Z,38.50
2022-11-25T15:53:37.927Z,33.20
2022-11-25T15:56:07.613Z,36.00
2022-11-25T15:58:36.448Z,31.90
2022-11-25T16:01:23.108Z,37.80
2022-11-25T16:03:52.118Z,40.60
2022-11-25T16:06:28.960Z,43.00
2022-11-25T16:09:00.711Z,37.30
2022-11-25T16:11:33.657Z,31.70
2022-11-25T16:14:26.014Z,26.30
2022-11-25T16:17:12.765Z,26.10
2022-11-25T16:19:45.760Z,22.10
2022-11-25T16:22:19.138Z,21.00
2022-11-25T16:26:26.763Z,23.20
2022-11-25T16:27:44.668Z,23.90
2022-11-25T16:30:20.911Z,24.00
2022-11-25T16:32:49.466Z,25.30
2022-11-25T16:35:23.838Z,24.60
2022-11-25T16:37:58.284Z,20.80
2022-11-25T16:40:28.419Z,20.50
2022-11-25T16:42:57.068Z,20.40
2022-11-25T16:45:28.356Z,45.40
2022-11-25T16:47:57.188Z,31.90
2022-11-25T16:50:25.804Z,23.80
2022-11-25T16:52:54.563Z,22.80
2022-11-25T16:55:23.979Z,18.90
2022-11-25T16:57:54.542Z,18.70
2022-11-25T17:00:23.264Z,21.30
2022-11-25T17:02:52.005Z,26.00
2022-11-25T17:05:24.863Z,23.00
2022-11-25T17:07:53.636Z,22.10
2022-11-25T17:10:22.375Z,21.60
2022-11-25T17:12:51.849Z,23.40
2022-11-25T17:15:29.397Z,21.90
2022-11-25T17:18:00.101Z,22.30
2022-11-25T17:20:28.835Z,23.40
2022-11-25T17:22:58.276Z,41.60
2022-11-25T17:25:32.384Z,24.80
2022-11-25T17:28:05.954Z,29.10
2022-11-25T17:30:40.550Z,23.10
2022-11-25T17:33:19.590Z,24.80
2022-11-25T17:35:48.185Z,24.60
2022-11-25T17:38:20.554Z,26.90
2022-11-25T17:40:50.657Z,28.70
2022-11-25T17:43:21.148Z,26.60
2022-11-25T17:45:49.840Z,24.90
2022-11-25T17:48:18.629Z,22.40
2022-11-25T17:50:47.555Z,26.20
2022-11-25T17:53:16.172Z,21.00
2022-11-25T17:55:44.764Z,28.40
2022-11-25T17:58:19.356Z,22.20
2022-11-25T18:00:49.040Z,21.80
2022-11-25T18:03:17.700Z,24.20
2022-11-25T18:05:46.307Z,26.10
2022-11-25T18:08:15.167Z,21.90
2022-11-25T18:10:46.279Z,22.00
2022-11-25T18:13:16.743Z,26.40
2022-11-25T18:15:45.473Z,27.60
2022-11-25T18:18:25.645Z,30.50
2022-11-25T18:20:54.344Z,33.00
2022-11-25T18:23:23.063Z,44.70
2022-11-25T18:25:52.966Z,36.00
2022-11-25T18:28:25.996Z,33.10
2022-11-25T18:31:00.073Z,32.20
2022-11-25T18:33:29.455Z,32.50
2022-11-25T18:35:58.543Z,26.80
2022-11-25T18:38:27.197Z,28.20
2022-11-25T18:40:56.502Z,29.60
2022-11-25T18:51:54.229Z,22.60
2022-11-25T18:54:22.789Z,19.50
2022-11-25T18:56:52.472Z,21.70
2022-11-25T18:59:36.539Z,21.00
2022-11-25T19:02:16.389Z,22.80
2022-11-25T19:04:45.901Z,24.80
2022-11-25T19:07:14.841Z,22.40
2022-11-25T19:09:43.526Z,22.20
2022-11-25T19:12:18.252Z,25.20
2022-11-25T19:14:47.826Z,28.80
2022-11-25T19:17:22.094Z,26.10
2022-11-25T19:19:50.802Z,25.00
2022-11-25T19:22:22.123Z,25.50
2022-11-25T19:24:51.409Z,25.10
2022-11-25T19:27:24.087Z,23.50
2022-11-25T19:29:53.269Z,25.70
2022-11-25T19:32:29.752Z,25.90
2022-11-25T19:35:05.812Z,23.50
2022-11-25T19:37:34.678Z,26.30
2022-11-25T19:40:14.847Z,27.90
2022-11-25T19:42:48.699Z,28.10
2022-11-25T19:45:20.666Z,28.70
2022-11-25T19:47:52.392Z,27.70
2022-11-25T19:50:28.009Z,27.30
2022-11-25T19:52:56.640Z,28.80
2022-11-25T19:55:30.067Z,28.60
2022-11-25T19:57:59.687Z,31.10
2022-11-25T20:00:28.317Z,30.70
2022-11-25T20:02:57.040Z,30.20
2022-11-25T20:05:38.505Z,33.80
2022-11-25T20:08:18.815Z,32.20
2022-11-25T20:10:47.909Z,33.40
2022-11-25T20:13:16.613Z,32.50
2022-11-25T20:15:46.154Z,32.90
2022-11-25T20:18:20.157Z,32.60
2022-11-25T20:21:02.370Z,31.80
2022-11-25T20:23:43.579Z,30.50
2022-11-25T20:26:27.012Z,29.20
2022-11-25T20:28:55.582Z,29.70
2022-11-25T20:31:30.532Z,30.50
2022-11-25T20:36:33.347Z,29.10
2022-11-25T20:39:03.921Z,29.00
2022-11-25T20:41:33.527Z,24.70
2022-11-25T20:44:02.515Z,25.50
2022-11-25T20:46:31.152Z,25.90
2022-11-25T20:49:03.436Z,29.90
2022-11-25T20:51:32.067Z,26.40
2022-11-25T20:54:01.452Z,24.40
2022-11-25T20:56:30.427Z,25.50
2022-11-25T20:58:59.004Z,24.50
2022-11-25T21:01:27.779Z,24.30
2022-11-25T21:03:56.498Z,30.50
2022-11-25T21:06:37.847Z,28.40
2022-11-25T21:09:19.302Z,28.60
2022-11-25T21:11:49.085Z,33.80
2022-11-25T21:14:20.108Z,35.90
2022-11-25T21:16:48.891Z,32.60
2022-11-25T21:19:17.585Z,28.00
2022-11-25T21:21:49.736Z,31.10
2022-11-25T21:24:32.985Z,28.30
2022-11-25T21:27:11.278Z,28.40
2022-11-25T21:29:45.093Z,28.40
2022-11-25T21:32:27.451Z,28.50
2022-11-25T21:34:57.032Z,26.70
2022-11-25T21:37:38.074Z,32.30
2022-11-25T21:40:16.610Z,29.10
2022-11-25T21:42:45.172Z,30.70
2022-11-25T21:45:18.448Z,29.00
2022-11-25T21:47:47.018Z,31.00
2022-11-25T21:50:18.981Z,27.90
2022-11-25T21:52:47.666Z,27.70
2022-11-25T21:55:17.804Z,30.20
2022-11-25T21:57:46.553Z,26.90
2022-11-25T22:00:25.505Z,29.00
2022-11-25T22:02:54.214Z,28.90
2022-11-25T22:05:26.985Z,28.00
2022-11-25T22:07:55.644Z,27.80
2022-11-25T22:10:24.380Z,32.90
2022-11-25T22:12:52.947Z,30.50
2022-11-25T22:15:23.179Z,29.00
2022-11-25T22:17:56.054Z,28.30
2022-11-25T22:20:34.011Z,27.30
2022-11-25T22:23:02.926Z,26.10
2022-11-25T22:25:32.880Z,29.30
2022-11-25T22:28:01.442Z,29.70
2022-11-25T22:30:30.071Z,30.40
2022-11-25T22:33:02.769Z,28.20
2022-11-25T22:35:31.448Z,23.40
2022-11-25T22:38:00.535Z,22.20
2022-11-25T22:40:29.228Z,20.90
2022-11-25T22:42:57.891Z,21.40
2022-11-25T22:45:32.405Z,24.30
2022-11-25T22:48:05.436Z,26.80
2022-11-25T22:50:34.969Z,30.00
2022-11-25T22:53:13.066Z,30.30
2022-11-25T22:55:42.450Z,26.40
2022-11-25T22:58:13.982Z,24.80
2022-11-25T23:00:46.800Z,28.00
2022-11-25T23:03:35.709Z,26.40
2022-11-25T23:06:05.592Z,28.10
2022-11-25T23:08:34.545Z,24.30
2022-11-25T23:11:03.383Z,23.40
2022-11-25T23:13:32.015Z,27.50
2022-11-25T23:16:04.088Z,29.80
2022-11-25T23:18:42.928Z,30.40
2022-11-25T23:21:22.978Z,29.40
2022-11-25T23:23:52.610Z,28.80
2022-11-25T23:29:07.981Z,29.50
2022-11-25T23:31:39.090Z,30.50
2022-11-25T23:34:31.028Z,30.50
2022-11-25T23:37:00.449Z,29.90
2022-11-25T23:39:29.096Z,28.10
2022-11-25T23:41:57.877Z,32.10
2022-11-25T23:44:31.637Z,29.70
2022-11-25T23:47:07.919Z,30.60
2022-11-25T23:49:41.469Z,33.00
2022-11-25T23:52:18.675Z,27.60
2022-11-25T23:54:49.660Z,28.50
2022-11-25T23:57:22.735Z,29.70
2022-11-25T23:59:52.662Z,33.80
